Time;durP1;ratioP1;P1;durP2;ratioP2;P2;SDS_P1;SDS_P2;PMS_P1;PMS_P2;Temp;Humidity;BMP_temperature;BMP_pressure;BME280_temperature;BME280_humidity;BME280_pressure;Samples;Min_cycle;Max_cycle;Signal;HPM_P1;HPM_P2
2021/03/10 07:45:10;;;;;;;12.53;4.65;;;;;;;-4.65;56.55;100816.87;1842361;77;25849;-64
2021/03/10 07:47:52;;;;;;;10.30;4.10;;;;;;;-4.50;55.88;100813.56;1756040;81;21166;-64
2021/03/10 07:50:20;;;;;;;8.60;3.80;;;;;;;-4.30;55.53;100810.53;1717855;82;21289;-66
2021/03/10 07:52:54;;;;;;;10.25;4.70;;;;;;;-4.09;54.80;100813.42;1734636;83;21147;-68
2021/03/10 07:55:22;;;;;;;6.45;3.83;;;;;;;-3.87;54.22;100814.98;1730365;83;21151;-66
2021/03/10 07:57:53;;;;;;;9.30;4.40;;;;;;;-3.60;54.20;100811.33;1712766;81;21609;-66
2021/03/10 08:00:33;;;;;;;10.08;4.22;;;;;;;-3.35;53.49;100812.33;1710144;84;21139;-65
2021/03/10 08:03:02;;;;;;;6.95;3.77;;;;;;;-2.93;51.99;100809.41;1701549;84;21614;-65
2021/03/10 08:05:33;;;;;;;6.92;3.92;;;;;;;-2.78;50.92;100808.12;1696509;84;21127;-64
2021/03/10 08:08:17;;;;;;;7.75;2.92;;;;;;;-2.78;50.92;100808.12;1702232;83;21155;-62
2021/03/10 08:10:47;;;;;;;6.08;3.30;;;;;;;-2.70;49.89;100811.28;1703115;82;21158;-63
2021/03/10 08:13:20;;;;;;;5.80;3.12;;;;;;;-2.66;49.72;100806.92;1698120;84;21778;-61
2021/03/10 08:15:49;;;;;;;5.42;3.35;;;;;;;-2.57;49.18;100802.79;1706763;83;21644;-64
2021/03/10 08:18:23;;;;;;;6.30;3.95;;;;;;;-2.54;49.02;100802.27;1697623;83;21133;-64
2021/03/10 08:20:55;;;;;;;5.15;3.05;;;;;;;-2.52;48.68;100808.16;1712776;82;21329;-68
2021/03/10 08:23:29;;;;;;;11.65;4.03;;;;;;;-2.47;48.34;100805.02;1705489;83;21142;-70
2021/03/10 08:25:57;;;;;;;8.70;4.03;;;;;;;-2.18;48.45;100804.52;1715782;83;21166;-70
2021/03/10 08:28:36;;;;;;;5.85;3.30;;;;;;;-2.18;48.45;100804.52;1711572;84;21641;-67
2021/03/10 08:31:07;;;;;;;7.87;3.50;;;;;;;-1.83;47.46;100801.23;1709541;83;21187;-66
2021/03/10 08:33:50;;;;;;;6.58;3.27;;;;;;;-1.83;47.46;100801.23;1702126;82;21146;-67
2021/03/10 08:36:33;;;;;;;7.05;3.85;;;;;;;-1.77;46.90;100800.58;1691144;83;21747;-64
2021/03/10 08:39:14;;;;;;;7.67;4.00;;;;;;;-1.65;47.06;100800.60;1702456;83;21174;-69
2021/03/10 08:41:50;;;;;;;15.95;5.72;;;;;;;-1.53;46.78;100799.34;1703795;83;21279;-69
2021/03/10 08:44:21;;;;;;;15.08;5.75;;;;;;;-1.46;46.01;100801.62;1692482;83;21182;-65
2021/03/10 08:46:54;;;;;;;16.15;6.70;;;;;;;-1.37;45.77;100800.45;1710356;83;21150;-68
2021/03/10 08:49:29;;;;;;;14.03;5.42;;;;;;;-1.32;45.24;100797.28;1696326;84;21606;-67
2021/03/10 08:52:24;;;;;;;26.70;7.53;;;;;;;-1.27;44.73;100797.95;1695047;84;21743;-68
2021/03/10 08:54:59;;;;;;;16.10;5.40;;;;;;;-1.28;43.94;100797.57;1697250;84;21147;-69
2021/03/10 08:57:32;;;;;;;24.63;7.28;;;;;;;-1.20;44.60;100798.56;1704936;83;21122;-69
2021/03/10 09:00:16;;;;;;;15.63;5.75;;;;;;;-1.08;43.39;100796.83;1698428;84;21162;-66
2021/03/10 09:02:48;;;;;;;10.60;5.05;;;;;;;-1.08;43.39;100796.83;1692619;84;21297;-71
2021/03/10 09:05:27;;;;;;;15.58;5.83;;;;;;;-1.06;43.17;100793.75;1659635;85;21178;-68
2021/03/10 09:07:58;;;;;;;19.75;7.37;;;;;;;-1.02;43.35;100791.47;1682095;84;21201;-63
2021/03/10 09:10:28;;;;;;;12.30;4.95;;;;;;;-0.98;42.43;100798.17;1685459;84;21327;-60
2021/03/10 09:12:58;;;;;;;15.00;6.45;;;;;;;-1.00;41.47;100805.06;1700419;84;21114;-60
2021/03/10 09:15:29;;;;;;;14.68;6.30;;;;;;;-1.04;41.68;100787.30;1703012;84;21649;-60
2021/03/10 09:18:12;;;;;;;14.70;4.47;;;;;;;-0.92;41.73;100795.83;1819997;77;22223;-61
2021/03/10 09:20:44;;;;;;;7.80;3.05;;;;;;;-0.99;40.72;100788.80;1765708;80;21562;-61
2021/03/10 09:23:17;;;;;;;8.40;4.17;;;;;;;-0.96;40.89;100793.80;1779776;78;21585;-64
2021/03/10 09:25:48;;;;;;;13.10;4.92;;;;;;;-0.94;40.74;100796.30;1776935;80;21293;-63
2021/03/10 09:28:19;;;;;;;11.25;4.47;;;;;;;-0.92;40.74;100789.41;1773244;80;21142;-63
2021/03/10 09:30:50;;;;;;;14.87;5.15;;;;;;;-0.92;40.98;100795.38;1771500;78;21254;-61
2021/03/10 09:33:26;;;;;;;10.60;3.87;;;;;;;-0.92;40.98;100795.38;1777288;78;21297;-64
2021/03/10 09:36:00;;;;;;;7.08;3.55;;;;;;;-0.76;40.63;100796.06;1762778;78;22136;-58
2021/03/10 09:38:31;;;;;;;7.60;2.87;;;;;;;-0.76;40.63;100796.06;1761937;80;21677;-61
2021/03/10 09:41:03;;;;;;;10.50;3.87;;;;;;;-0.65;39.95;100804.19;1771666;80;21187;-63
2021/03/10 09:43:34;;;;;;;4.50;2.62;;;;;;;-0.65;39.95;100804.19;1770276;80;21191;-62
2021/03/10 09:46:06;;;;;;;11.75;5.03;;;;;;;-0.38;38.58;100802.25;1777472;78;21296;-60
2021/03/10 09:48:41;;;;;;;6.17;3.70;;;;;;;-0.38;38.58;100802.25;1776719;81;21638;-58
2021/03/10 09:51:19;;;;;;;9.23;4.05;;;;;;;-0.36;38.08;100802.59;1778700;80;21658;-60
2021/03/10 09:53:48;;;;;;;;;;;;;;;-0.41;37.94;100797.26;1772377;80;21190;-59
2021/03/10 09:56:19;;;;;;;8.70;3.80;;;;;;;-0.39;37.98;100796.73;1771259;80;20283;-58
2021/03/10 09:58:56;;;;;;;14.03;4.90;;;;;;;-0.36;37.87;100801.31;1741258;80;21197;-58
2021/03/10 10:01:29;;;;;;;6.67;3.72;;;;;;;-0.31;38.06;100798.54;1746313;82;21134;-58
2021/03/10 10:03:58;;;;;;;20.25;6.95;;;;;;;-0.19;37.97;100803.63;1750270;81;21194;-61
2021/03/10 10:06:29;;;;;;;11.55;4.87;;;;;;;-0.04;38.22;100796.14;1734003;81;21585;-60
2021/03/10 10:08:59;;;;;;;13.30;6.05;;;;;;;0.11;38.10;100802.82;1750337;81;21622;-60
2021/03/10 10:11:29;;;;;;;10.90;3.92;;;;;;;0.25;38.06;100798.79;1758451;80;21154;-61
2021/03/10 10:13:59;;;;;;;8.45;3.70;;;;;;;0.38;37.17;100799.09;1748577;81;22460;-60
2021/03/10 10:16:28;;;;;;;8.88;3.60;;;;;;;0.51;36.90;100798.11;1747554;81;21605;-60
2021/03/10 10:18:59;;;;;;;7.20;3.60;;;;;;;0.59;36.73;100801.17;1753583;81;21578;-60
2021/03/10 10:21:29;;;;;;;16.62;5.60;;;;;;;0.58;36.29;100791.80;1753731;80;21158;-61
2021/03/10 10:23:59;;;;;;;5.92;3.50;;;;;;;0.63;36.40;100799.31;1718285;81;21573;-63
2021/03/10 10:26:28;;;;;;;7.87;4.20;;;;;;;0.71;36.03;100801.92;1759719;81;21570;-62
2021/03/10 10:28:57;;;;;;;17.23;6.10;;;;;;;0.71;36.40;100794.20;1739547;81;21126;-62
2021/03/10 10:31:31;;;;;;;19.27;6.67;;;;;;;0.84;36.83;100791.91;1750092;81;21546;-62
2021/03/10 10:34:03;;;;;;;9.48;3.77;;;;;;;1.02;36.83;100785.10;1753356;80;21179;-62
2021/03/10 10:36:31;;;;;;;18.77;6.83;;;;;;;1.16;36.48;100783.17;1709099;83;21723;-61
2021/03/10 10:39:03;;;;;;;11.10;4.60;;;;;;;1.25;36.31;100781.02;1691584;83;21274;-61
2021/03/10 10:41:31;;;;;;;6.78;3.55;;;;;;;1.33;36.31;100785.80;1686415;84;21521;-61
2021/03/10 10:44:01;;;;;;;9.98;4.35;;;;;;;1.38;36.02;100778.70;1695712;84;21214;-62
2021/03/10 10:46:30;;;;;;;8.20;4.17;;;;;;;1.37;35.50;100793.77;1685255;84;21535;-64
2021/03/10 10:49:00;;;;;;;9.13;3.52;;;;;;;1.35;35.58;100778.83;1692619;84;21305;-63
2021/03/10 10:51:30;;;;;;;7.65;4.42;;;;;;;1.43;35.65;100770.30;1674581;85;21217;-64
2021/03/10 10:54:06;;;;;;;10.70;4.72;;;;;;;1.50;36.03;100773.41;1681610;84;21607;-66
2021/03/10 10:56:38;;;;;;;8.05;3.70;;;;;;;1.57;36.36;100779.94;1685185;83;21126;-66
2021/03/10 10:59:08;;;;;;;8.48;3.98;;;;;;;1.61;36.31;100765.55;1687168;84;21610;-64
2021/03/10 11:01:40;;;;;;;11.78;5.28;;;;;;;1.65;35.94;100767.51;1692665;84;21163;-60
2021/03/10 11:04:09;;;;;;;10.38;4.87;;;;;;;1.76;35.30;100756.23;1699782;83;21174;-63
2021/03/10 11:06:38;;;;;;;12.85;5.80;;;;;;;1.75;35.48;100761.00;1684446;84;21699;-61
2021/03/10 11:09:07;;;;;;;5.85;3.65;;;;;;;1.77;35.86;100765.62;1689786;84;21142;-62
2021/03/10 11:11:36;;;;;;;8.05;4.08;;;;;;;1.85;35.32;100758.33;1692401;83;21611;-61
2021/03/10 11:14:06;;;;;;;12.37;4.85;;;;;;;1.99;35.37;100760.67;1695622;84;21347;-60
2021/03/10 11:16:36;;;;;;;7.08;3.22;;;;;;;2.03;35.34;100759.16;1693222;84;21704;-60
2021/03/10 11:19:07;;;;;;;8.48;3.17;;;;;;;2.06;35.13;100755.16;1725966;80;21421;-61
2021/03/10 11:21:37;;;;;;;7.78;3.55;;;;;;;2.09;34.51;100756.73;1658576;85;21171;-60
2021/03/10 11:24:09;;;;;;;6.70;4.00;;;;;;;2.14;34.74;100749.14;1724917;83;21175;-60
2021/03/10 11:26:39;;;;;;;6.17;3.27;;;;;;;2.19;34.99;100751.50;1751959;82;21191;-62
2021/03/10 11:29:08;;;;;;;6.60;2.87;;;;;;;2.13;34.54;100750.06;1752644;82;21563;-61
2021/03/10 11:31:38;;;;;;;9.28;3.65;;;;;;;2.09;34.42;100752.41;1737284;82;21577;-61
2021/03/10 11:34:07;;;;;;;10.65;4.12;;;;;;;1.97;34.54;100744.00;1704627;82;21545;-60
2021/03/10 11:36:36;;;;;;;6.60;3.25;;;;;;;2.02;34.61;100744.61;1719547;83;21198;-61
2021/03/10 11:39:09;;;;;;;9.70;4.62;;;;;;;2.10;34.21;100749.37;1719918;83;21135;-60
2021/03/10 11:41:37;;;;;;;10.63;4.47;;;;;;;2.10;34.76;100743.75;1719019;83;21613;-60
2021/03/10 11:44:06;;;;;;;6.42;3.05;;;;;;;2.14;33.77;100752.18;1755013;82;21658;-63
2021/03/10 11:46:36;;;;;;;3.90;2.47;;;;;;;2.11;33.69;100742.01;1750009;80;21320;-62
2021/03/10 11:49:05;;;;;;;4.55;2.58;;;;;;;2.07;33.55;100741.34;1738626;82;21110;-63
2021/03/10 11:51:34;;;;;;;4.20;2.40;;;;;;;2.07;33.81;100738.77;1754594;81;22216;-62
2021/03/10 11:54:02;;;;;;;4.37;2.77;;;;;;;2.14;33.85;100740.12;1732569;82;21523;-64
2021/03/10 11:56:31;;;;;;;5.75;3.10;;;;;;;2.27;34.19;100735.16;1725001;82;21626;-62
2021/03/10 11:59:00;;;;;;;5.78;2.90;;;;;;;2.36;33.86;100736.42;1758088;80;21607;-65
2021/03/10 12:01:39;;;;;;;5.72;3.20;;;;;;;2.46;33.11;100729.88;1754558;81;21779;-63
2021/03/10 12:04:08;;;;;;;10.38;3.72;;;;;;;2.58;33.25;100724.06;1755615;82;21634;-63
2021/03/10 12:06:39;;;;;;;6.28;3.77;;;;;;;2.74;33.28;100721.97;1750068;81;21589;-62
2021/03/10 12:09:07;;;;;;;5.90;3.25;;;;;;;2.90;32.76;100726.20;1726059;82;21614;-62
2021/03/10 12:11:37;;;;;;;6.35;4.12;;;;;;;2.92;32.43;100723.09;1752428;80;21617;-67
2021/03/10 12:14:07;;;;;;;6.80;3.17;;;;;;;3.01;32.30;100725.63;1752828;82;21111;-65
2021/03/10 12:16:36;;;;;;;14.95;4.55;;;;;;;3.06;32.03;100724.09;1739890;82;21757;-65
2021/03/10 12:19:06;;;;;;;8.50;4.25;;;;;;;3.11;31.95;100717.75;1754041;81;21463;-62
2021/03/10 12:21:34;;;;;;;12.10;5.53;;;;;;;3.03;31.67;100718.61;1754564;81;21666;-61
2021/03/10 12:24:04;;;;;;;8.45;3.72;;;;;;;2.98;31.66;100725.77;1749269;80;21190;-65
2021/03/10 12:26:32;;;;;;;6.28;3.22;;;;;;;3.02;31.38;100724.70;1752751;81;21191;-68
2021/03/10 12:29:02;;;;;;;5.78;3.12;;;;;;;3.13;31.25;100722.82;1752952;82;21162;-61
2021/03/10 12:31:32;;;;;;;12.73;5.35;;;;;;;2.99;31.26;100712.44;1747397;81;21309;-66
2021/03/10 12:34:03;;;;;;;10.85;5.10;;;;;;;2.99;31.26;100712.44;1749236;82;21135;-66
2021/03/10 12:36:31;;;;;;;8.68;3.83;;;;;;;2.95;31.21;100717.75;1782642;80;21618;-68
2021/03/10 12:39:03;;;;;;;10.48;4.03;;;;;;;2.95;31.18;100714.34;1770122;80;21658;-62
2021/03/10 12:41:31;;;;;;;6.00;2.83;;;;;;;2.97;31.38;100719.78;1736661;81;21174;-62
2021/03/10 12:44:01;;;;;;;4.40;2.77;;;;;;;3.03;30.92;100720.36;1724123;82;21308;-62
2021/03/10 12:46:31;;;;;;;4.90;2.92;;;;;;;3.03;30.92;100712.16;1728478;80;21511;-61
2021/03/10 12:49:01;;;;;;;4.58;3.05;;;;;;;3.12;30.62;100703.91;1737655;82;21610;-61
2021/03/10 12:51:30;;;;;;;13.03;6.03;;;;;;;3.17;30.46;100705.79;1741334;82;21729;-60
2021/03/10 12:53:59;;;;;;;4.70;2.50;;;;;;;3.24;30.73;100712.73;1755319;81;22291;-62
2021/03/10 12:56:27;;;;;;;6.95;3.12;;;;;;;3.25;30.09;100707.94;1753060;81;21656;-65
2021/03/10 12:58:56;;;;;;;3.12;2.35;;;;;;;3.29;30.24;100709.86;1732975;80;21573;-64
2021/03/10 13:01:24;;;;;;;13.85;8.68;;;;;;;3.31;30.04;100703.71;1708175;83;21134;-64
2021/03/10 13:03:53;;;;;;;13.13;8.85;;;;;;;3.32;30.40;100705.37;1751961;81;21531;-65
2021/03/10 13:06:22;;;;;;;8.93;3.90;;;;;;;3.27;30.30;100703.50;1735039;82;21717;-65
2021/03/10 13:08:50;;;;;;;6.70;3.83;;;;;;;3.22;30.51;100696.47;1739364;82;22360;-65
2021/03/10 13:11:19;;;;;;;5.65;3.70;;;;;;;3.15;30.70;100704.19;1738305;80;22378;-64
2021/03/10 13:13:48;;;;;;;5.22;2.80;;;;;;;3.01;30.37;100701.09;1753474;82;21235;-65
2021/03/10 13:16:16;;;;;;;7.83;3.47;;;;;;;2.86;30.29;100707.11;1730740;82;21173;-64
2021/03/10 13:18:45;;;;;;;6.53;3.05;;;;;;;2.75;30.59;100705.56;1720048;82;21620;-65
2021/03/10 13:21:14;;;;;;;8.75;4.35;;;;;;;2.63;31.03;100701.90;1718165;83;21659;-64
2021/03/10 13:23:43;;;;;;;9.75;4.72;;;;;;;2.57;31.18;100699.65;1719375;80;21634;-65
2021/03/10 13:26:11;;;;;;;11.55;6.25;;;;;;;2.45;30.81;100701.13;1735814;82;21167;-65
2021/03/10 13:28:40;;;;;;;15.10;6.55;;;;;;;2.45;30.81;100701.13;1746521;82;21666;-66
2021/03/10 13:31:08;;;;;;;13.85;6.47;;;;;;;2.34;30.97;100704.73;1730443;82;21652;-61
2021/03/10 13:33:37;;;;;;;13.20;7.08;;;;;;;2.25;31.21;100694.45;1743952;82;21178;-60
2021/03/10 13:36:07;;;;;;;19.23;8.93;;;;;;;2.21;31.12;100703.70;1767186;80;21161;-60
2021/03/10 13:38:35;;;;;;;15.18;6.25;;;;;;;2.21;31.56;100704.53;1748188;81;21199;-60
2021/03/10 13:41:05;;;;;;;15.20;6.08;;;;;;;2.26;31.80;100701.27;1746659;82;21749;-62
2021/03/10 13:43:35;;;;;;;7.85;3.52;;;;;;;2.26;31.80;100701.27;1747563;82;21606;-60
2021/03/10 13:46:04;;;;;;;25.80;10.05;;;;;;;2.27;31.15;100699.06;1744223;80;21570;-62
2021/03/10 13:48:32;;;;;;;16.97;7.12;;;;;;;2.29;31.51;100698.97;1729601;80;21146;-60
2021/03/10 13:51:01;;;;;;;19.37;8.60;;;;;;;2.31;31.31;100697.16;1710203;82;21582;-63
2021/03/10 13:53:30;;;;;;;15.45;7.37;;;;;;;2.41;31.52;100692.70;1687513;84;21693;-61
2021/03/10 13:55:58;;;;;;;8.70;4.30;;;;;;;2.49;31.53;100687.17;1735032;80;21124;-61
2021/03/10 13:58:27;;;;;;;11.00;5.08;;;;;;;2.50;31.01;100686.25;1719135;82;21595;-60
2021/03/10 14:00:56;;;;;;;14.30;7.53;;;;;;;2.41;30.92;100682.85;1737945;80;21535;-60
2021/03/10 14:03:24;;;;;;;16.10;7.50;;;;;;;2.38;30.70;100687.73;1717560;82;22350;-60
2021/03/10 14:05:53;;;;;;;14.80;6.97;;;;;;;2.39;31.04;100684.69;1716441;82;21583;-60
2021/03/10 14:08:22;;;;;;;18.30;7.33;;;;;;;2.43;30.92;100681.05;1726243;82;21615;-60
